Time;durP1;ratioP1;P1;durP2;ratioP2;P2;SDS_P1;SDS_P2;PMS_P1;PMS_P2;Temp;Humidity;BMP_temperature;BMP_pressure;BME280_temperature;BME280_humidity;BME280_pressure;Samples;Min_cycle;Max_cycle;Signal;HPM_P1;HPM_P2
2022/11/05 00:10:53;;;;;;;0.50;0.50;;;6.30;99.90;;;;;;5060666;28;20138;-79
2022/11/05 00:19:08;;;;;;;0.57;0.57;;;5.60;99.90;;;;;;5040116;28;20063;-80
2022/11/05 00:27:06;;;;;;;1.10;0.90;;;5.70;99.90;;;;;;5074021;28;20048;-79
2022/11/05 00:29:32;;;;;;;1.05;1.05;;;5.60;99.90;;;;;;5057626;28;20075;-80
2022/11/05 00:31:58;;;;;;;0.60;0.60;;;5.70;99.90;;;;;;5065266;28;20051;-79
2022/11/05 00:34:24;;;;;;;0.60;0.60;;;5.80;99.90;;;;;;5076571;28;20052;-80
2022/11/05 00:36:50;;;;;;;0.70;0.70;;;5.50;99.90;;;;;;5057997;28;20044;-79
2022/11/05 00:39:16;;;;;;;0.70;0.70;;;5.50;99.90;;;;;;5069458;28;20044;-79
2022/11/05 00:41:41;;;;;;;1.75;1.65;;;5.50;99.90;;;;;;5060062;28;20513;-79
2022/11/05 00:49:28;;;;;;;0.70;0.70;;;5.60;99.90;;;;;;5066665;28;21412;-80
2022/11/05 00:49:37;;;;;;;0.50;0.50;;;6.00;99.90;;;;;;5061634;28;20375;-80
2022/11/05 00:54:47;;;;;;;0.65;0.65;;;5.60;99.90;;;;;;5073691;28;20044;-80
2022/11/05 00:57:13;;;;;;;0.60;0.60;;;5.60;99.90;;;;;;5058769;28;20050;-80
2022/11/05 00:59:44;;;;;;;0.70;0.70;;;5.60;99.90;;;;;;5058860;28;20117;-79
2022/11/05 01:02:10;;;;;;;0.77;0.77;;;5.60;99.90;;;;;;5047998;28;20412;-79
2022/11/05 01:04:35;;;;;;;0.80;0.80;;;5.70;99.90;;;;;;5066641;28;20040;-80
2022/11/05 01:07:01;;;;;;;0.65;0.65;;;5.70;99.90;;;;;;5046763;28;20382;-80
2022/11/05 01:09:27;;;;;;;0.68;0.68;;;5.70;99.90;;;;;;5074978;28;20048;-80
2022/11/05 01:11:53;;;;;;;0.70;0.70;;;5.70;99.90;;;;;;5065623;28;20032;-80
2022/11/05 01:14:19;;;;;;;0.50;0.50;;;5.80;99.90;;;;;;5058043;28;20127;-79
2022/11/05 01:16:45;;;;;;;0.60;0.60;;;5.80;99.90;;;;;;5051562;28;20127;-79
2022/11/05 01:19:12;;;;;;;0.70;0.70;;;5.60;99.90;;;;;;5058859;28;20052;-79
2022/11/05 01:21:38;;;;;;;0.70;0.70;;;5.50;99.90;;;;;;5076424;28;20128;-79
2022/11/05 01:24:04;;;;;;;0.60;0.60;;;5.50;99.90;;;;;;5055010;28;20080;-79
2022/11/05 01:26:30;;;;;;;0.50;0.50;;;5.40;99.90;;;;;;5075347;28;20044;-80
2022/11/05 01:28:59;;;;;;;0.70;0.70;;;5.80;99.90;;;;;;5057399;28;20055;-79
2022/11/05 01:31:25;;;;;;;0.50;0.50;;;5.40;99.90;;;;;;5057956;28;20106;-80
2022/11/05 01:33:51;;;;;;;0.60;0.60;;;5.40;99.90;;;;;;5056905;28;20043;-81
2022/11/05 01:36:17;;;;;;;0.70;0.70;;;5.30;99.90;;;;;;5050782;28;20044;-80
2022/11/05 01:38:42;;;;;;;0.63;0.63;;;5.20;99.90;;;;;;5059725;28;20086;-80
2022/11/05 01:41:09;;;;;;;0.63;0.63;;;5.20;99.90;;;;;;5063667;28;20032;-80
2022/11/05 01:43:58;;;;;;;;;;;5.20;99.90;;;;;;5061995;28;20106;-81
2022/11/05 01:46:32;;;;;;;0.60;0.60;;;5.20;99.90;;;;;;5075391;28;19962;-80
2022/11/05 01:49:09;;;;;;;0.50;0.50;;;5.20;99.90;;;;;;5060260;28;20040;-80
2022/11/05 01:51:34;;;;;;;0.40;0.40;;;5.20;99.90;;;;;;5079050;28;20040;-82
2022/11/05 01:54:09;;;;;;;0.93;0.93;;;5.30;99.90;;;;;;5074734;28;20221;-82
2022/11/05 01:56:39;;;;;;;0.70;0.70;;;5.30;99.90;;;;;;5077549;28;20059;-82
2022/11/05 01:59:13;;;;;;;0.55;0.55;;;5.30;99.90;;;;;;5079695;28;20052;-81
2022/11/05 02:01:39;;;;;;;0.73;0.70;;;5.20;99.90;;;;;;5080617;28;20048;-82
2022/11/05 02:04:10;;;;;;;0.68;0.68;;;5.40;99.90;;;;;;5073631;28;20343;-82
2022/11/05 02:06:44;;;;;;;0.60;0.60;;;6.00;99.90;;;;;;5072876;28;20051;-81
2022/11/05 02:09:42;;;;;;;0.65;0.65;;;5.10;99.90;;;;;;5086189;27;20040;-81
2022/11/05 02:12:09;;;;;;;0.70;0.70;;;5.10;99.90;;;;;;5069937;28;20039;-82
2022/11/05 02:14:35;;;;;;;0.50;0.50;;;5.10;99.90;;;;;;5082396;28;20050;-82
2022/11/05 02:17:19;;;;;;;0.60;0.60;;;5.10;99.90;;;;;;5082648;28;20040;-81
2022/11/05 02:20:08;;;;;;;0.70;0.70;;;5.20;99.90;;;;;;5083112;28;20127;-82
2022/11/05 02:22:58;;;;;;;0.60;0.60;;;5.20;99.90;;;;;;5081059;28;20485;-82
2022/11/05 02:25:55;;;;;;;0.60;0.60;;;5.20;99.90;;;;;;5080467;28;20035;-81
2022/11/05 02:28:39;;;;;;;0.65;0.65;;;5.20;99.90;;;;;;5079921;28;20122;-80
2022/11/05 02:31:23;;;;;;;0.70;0.70;;;5.20;99.90;;;;;;5084033;28;20032;-81
2022/11/05 02:34:11;;;;;;;0.63;0.63;;;5.20;99.90;;;;;;5077495;28;20031;-82
2022/11/05 02:36:52;;;;;;;1.35;1.35;;;5.20;99.90;;;;;;5066577;27;20067;-81
2022/11/05 02:39:39;;;;;;;0.60;0.60;;;5.20;99.90;;;;;;5064601;28;20062;-81
2022/11/05 02:42:42;;;;;;;0.68;0.68;;;5.30;99.90;;;;;;5081542;28;20039;-82
2022/11/05 02:45:37;;;;;;;0.52;0.52;;;5.30;99.90;;;;;;5079958;28;20888;-80
2022/11/05 02:48:21;;;;;;;0.50;0.50;;;5.40;99.90;;;;;;5085796;28;20091;-80
2022/11/05 02:51:08;;;;;;;0.43;0.43;;;5.30;99.90;;;;;;5078507;28;20471;-82
2022/11/05 02:54:07;;;;;;;0.60;0.60;;;5.30;99.90;;;;;;5105776;28;20032;-79
2022/11/05 02:56:37;;;;;;;0.88;0.88;;;5.30;99.90;;;;;;5082455;28;20052;-80
2022/11/05 02:59:03;;;;;;;0.70;0.70;;;5.30;99.90;;;;;;5061743;28;20072;-81
2022/11/05 03:01:29;;;;;;;0.55;0.55;;;5.40;99.90;;;;;;5077308;28;20056;-81
2022/11/05 03:03:59;;;;;;;0.60;0.60;;;5.50;99.90;;;;;;5080358;28;20093;-81
2022/11/05 03:06:49;;;;;;;0.57;0.57;;;5.70;99.90;;;;;;5078196;28;20082;-82
2022/11/05 03:09:36;;;;;;;0.60;0.60;;;5.50;99.90;;;;;;5069121;28;20576;-82
2022/11/05 03:12:32;;;;;;;0.70;0.70;;;5.60;99.90;;;;;;5101278;28;20532;-82
2022/11/05 03:15:04;;;;;;;0.60;0.60;;;5.50;99.90;;;;;;5111164;27;20043;-81
2022/11/05 03:17:51;;;;;;;0.52;0.52;;;5.50;99.90;;;;;;5080529;28;20046;-82
2022/11/05 03:20:19;;;;;;;0.70;0.70;;;5.50;99.90;;;;;;5097689;28;20442;-81
2022/11/05 03:23:10;;;;;;;0.60;0.60;;;5.40;99.90;;;;;;5080949;28;20043;-83
2022/11/05 03:25:41;;;;;;;0.30;0.30;;;5.40;99.90;;;;;;5062835;28;20044;-83
2022/11/05 03:28:09;;;;;;;0.60;0.60;;;5.40;99.90;;;;;;5081657;28;20036;-82
2022/11/05 03:30:38;;;;;;;0.50;0.50;;;5.40;99.90;;;;;;5065655;28;20071;-82
2022/11/05 03:33:10;;;;;;;0.50;0.50;;;5.40;99.90;;;;;;5066033;28;20039;-81
2022/11/05 03:35:46;;;;;;;0.70;0.70;;;5.40;99.90;;;;;;5063303;28;20050;-80
2022/11/05 03:38:19;;;;;;;0.60;0.60;;;5.40;99.90;;;;;;5099184;28;20488;-81
2022/11/05 03:40:48;;;;;;;0.60;0.60;;;5.40;99.90;;;;;;5062263;28;20485;-81
2022/11/05 03:43:16;;;;;;;0.65;0.65;;;5.50;99.90;;;;;;5113110;27;20448;-82
2022/11/05 03:46:14;;;;;;;0.50;0.50;;;5.60;99.90;;;;;;5062038;28;20133;-82
2022/11/05 03:48:45;;;;;;;0.50;0.50;;;5.70;99.90;;;;;;5077353;28;20048;-82
2022/11/05 03:51:15;;;;;;;0.70;0.70;;;5.80;99.90;;;;;;5081293;28;20474;-82
2022/11/05 03:53:47;;;;;;;0.40;0.40;;;5.80;99.90;;;;;;5076910;28;20048;-81
2022/11/05 03:56:32;;;;;;;0.50;0.50;;;5.90;99.90;;;;;;5077205;28;20047;-81
2022/11/05 03:59:00;;;;;;;0.77;0.77;;;6.00;99.90;;;;;;5067510;28;20044;-81
2022/11/05 04:01:27;;;;;;;0.50;0.50;;;6.10;99.90;;;;;;5096557;28;20047;-81
2022/11/05 04:03:53;;;;;;;0.40;0.40;;;6.10;99.90;;;;;;5082781;28;20450;-80
2022/11/05 04:14:32;;;;;;;0.40;0.40;;;6.40;99.90;;;;;;5081314;28;20116;-81
2022/11/05 04:17:08;;;;;;;0.50;0.50;;;6.40;99.90;;;;;;5062066;28;20040;-81
2022/11/05 04:25:11;;;;;;;0.43;0.43;;;6.40;99.90;;;;;;5078223;28;20050;-82
2022/11/05 04:27:37;;;;;;;0.85;0.85;;;7.10;99.90;;;;;;5053310;28;20119;-81
2022/11/05 04:30:20;;;;;;;0.50;0.50;;;6.50;99.90;;;;;;5084810;28;20485;-82
2022/11/05 04:32:59;;;;;;;0.40;0.40;;;6.40;99.90;;;;;;5064361;28;20071;-82
2022/11/05 04:35:30;;;;;;;0.60;0.60;;;6.50;99.90;;;;;;5072368;28;20047;-80
2022/11/05 04:37:55;;;;;;;0.50;0.50;;;6.40;99.90;;;;;;5085886;28;20963;-81
2022/11/05 04:40:21;;;;;;;0.60;0.60;;;6.40;99.90;;;;;;5061089;28;20044;-80
2022/11/05 04:42:47;;;;;;;0.70;0.70;;;6.40;99.90;;;;;;5081116;28;20078;-81
2022/11/05 04:45:13;;;;;;;0.60;0.60;;;6.30;99.90;;;;;;5096028;28;20036;-82
2022/11/05 04:47:38;;;;;;;0.60;0.60;;;6.20;99.90;;;;;;5076771;28;20495;-81
2022/11/05 04:50:09;;;;;;;0.50;0.50;;;6.30;99.90;;;;;;5097480;28;20032;-82
2022/11/05 04:52:35;;;;;;;0.77;0.77;;;6.20;99.90;;;;;;5067445;28;20044;-81
2022/11/05 04:55:00;;;;;;;0.32;0.32;;;6.20;99.90;;;;;;5058928;28;20047;-80
2022/11/05 04:57:26;;;;;;;0.70;0.70;;;6.20;99.90;;;;;;5077467;28;20039;-81
2022/11/05 04:59:53;;;;;;;0.50;0.50;;;6.10;99.90;;;;;;5079561;28;20121;-81
2022/11/05 05:02:20;;;;;;;1.77;1.67;;;6.10;99.90;;;;;;5093430;28;20054;-81
2022/11/05 05:04:45;;;;;;;1.00;0.77;;;6.20;99.90;;;;;;5080485;28;20104;-79
2022/11/05 05:07:11;;;;;;;0.50;0.50;;;6.20;99.90;;;;;;5060142;28;20047;-80
2022/11/05 05:09:36;;;;;;;0.90;0.90;;;6.40;99.90;;;;;;5062824;28;20055;-80
2022/11/05 05:12:02;;;;;;;0.70;0.70;;;6.30;99.90;;;;;;5112134;27;20044;-81
2022/11/05 05:14:28;;;;;;;0.50;0.50;;;6.20;99.90;;;;;;5081291;28;20044;-82
2022/11/05 05:16:54;;;;;;;0.70;0.70;;;6.20;99.90;;;;;;5084049;28;20497;-82
2022/11/05 05:19:19;;;;;;;0.70;0.70;;;6.20;99.90;;;;;;5079744;28;20736;-79
2022/11/05 05:21:45;;;;;;;0.50;0.50;;;6.20;99.90;;;;;;5063490;28;20032;-81
2022/11/05 05:24:13;;;;;;;0.55;0.55;;;6.00;99.90;;;;;;5096674;28;20052;-80
2022/11/05 05:26:45;;;;;;;0.60;0.60;;;5.90;99.90;;;;;;5085397;28;20044;-79
2022/11/05 05:29:11;;;;;;;0.82;0.82;;;5.90;99.90;;;;;;5067395;28;20050;-80
2022/11/05 05:31:37;;;;;;;0.60;0.60;;;5.90;99.90;;;;;;5115379;27;20040;-80
2022/11/05 05:34:04;;;;;;;;;;;5.90;99.90;;;;;;5111747;27;20044;-80
2022/11/05 05:36:30;;;;;;;0.67;0.67;;;5.80;99.90;;;;;;5082757;28;19927;-80
2022/11/05 05:38:56;;;;;;;0.55;0.55;;;5.70;99.90;;;;;;5081961;28;20205;-80
2022/11/05 05:41:22;;;;;;;0.68;0.68;;;6.40;99.90;;;;;;5079664;28;20201;-81
2022/11/05 05:43:49;;;;;;;0.50;0.50;;;5.60;99.90;;;;;;5097609;28;20548;-79
2022/11/05 05:46:16;;;;;;;0.70;0.70;;;5.70;99.90;;;;;;5079635;28;20072;-80
2022/11/05 05:48:46;;;;;;;0.50;0.50;;;5.60;99.90;;;;;;5081224;28;20092;-80
2022/11/05 05:51:12;;;;;;;0.60;0.60;;;5.60;99.90;;;;;;5064332;28;20044;-80
2022/11/05 05:53:37;;;;;;;0.70;0.70;;;5.50;99.90;;;;;;5068957;28;20417;-80
2022/11/05 05:56:04;;;;;;;0.52;0.52;;;5.40;99.90;;;;;;5095142;28;20092;-79
2022/11/05 05:58:35;;;;;;;0.50;0.50;;;5.40;99.90;;;;;;5064766;28;20043;-81
2022/11/05 06:01:03;;;;;;;0.60;0.60;;;5.30;99.90;;;;;;5079529;28;20056;-80
2022/11/05 06:03:29;;;;;;;0.70;0.70;;;5.30;99.90;;;;;;5085427;28;20040;-80
2022/11/05 06:06:03;;;;;;;0.70;0.70;;;5.30;99.90;;;;;;5084921;28;20390;-80
2022/11/05 06:08:29;;;;;;;0.80;0.80;;;5.30;99.90;;;;;;5078198;28;20130;-80
2022/11/05 06:10:55;;;;;;;;;;;5.30;99.90;;;;;;5082282;28;20043;-79
2022/11/05 06:13:21;;;;;;;0.60;0.60;;;5.30;99.90;;;;;;5111880;27;19926;-80
2022/11/05 06:15:46;;;;;;;0.98;0.98;;;5.40;99.90;;;;;;5095969;27;20097;-80
2022/11/05 06:18:12;;;;;;;0.70;0.70;;;5.40;99.90;;;;;;5080206;28;20043;-80
2022/11/05 06:20:38;;;;;;;0.60;0.60;;;5.50;99.90;;;;;;5084529;28;20040;-80
2022/11/05 06:23:04;;;;;;;;;;;5.50;99.90;;;;;;5049042;28;20047;-81
2022/11/05 06:25:29;;;;;;;0.85;0.85;;;5.50;99.90;;;;;;5079362;28;19920;-80
2022/11/05 06:27:55;;;;;;;0.80;0.80;;;5.60;99.90;;;;;;5098407;28;20040;-80
2022/11/05 06:30:22;;;;;;;0.70;0.70;;;5.40;99.90;;;;;;5064216;28;20036;-79
2022/11/05 06:32:48;;;;;;;1.60;1.50;;;5.50;99.90;;;;;;5071695;28;20059;-80
2022/11/05 06:35:14;;;;;;;;;;;5.40;99.90;;;;;;5099596;28;20776;-80
2022/11/05 06:37:40;;;;;;;0.70;0.70;;;5.30;99.90;;;;;;5099824;28;20046;-79
2022/11/05 06:40:06;;;;;;;0.50;0.50;;;5.30;99.90;;;;;;5097891;28;20051;-81
2022/11/05 06:42:31;;;;;;;;;;;5.20;99.90;;;;;;5067224;28;20130;-79
2022/11/05 06:44:57;;;;;;;0.70;0.70;;;5.20;99.90;;;;;;5083133;28;20321;-80
2022/11/05 06:47:23;;;;;;;0.80;0.80;;;5.20;99.90;;;;;;5089049;27;20168;-80
2022/11/05 06:49:48;;;;;;;0.63;0.63;;;5.10;99.90;;;;;;5079655;28;20074;-81
2022/11/05 06:52:15;;;;;;;0.70;0.70;;;5.10;99.90;;;;;;5094558;28;20071;-81
2022/11/05 06:54:42;;;;;;;1.27;1.27;;;5.10;99.90;;;;;;5062241;28;20092;-79
2022/11/05 06:57:09;;;;;;;0.70;0.70;;;5.10;99.90;;;;;;5079898;28;20095;-81
2022/11/05 06:59:36;;;;;;;0.65;0.65;;;5.00;99.90;;;;;;5064344;28;20055;-80
2022/11/05 07:02:02;;;;;;;0.60;0.60;;;5.10;99.90;;;;;;5078018;28;20097;-81
2022/11/05 07:04:27;;;;;;;0.65;0.65;;;5.10;99.90;;;;;;5078850;28;20040;-80
2022/11/05 07:06:53;;;;;;;0.85;0.85;;;5.20;99.90;;;;;;5080135;28;20130;-81
2022/11/05 07:09:19;;;;;;;0.45;0.45;;;5.20;99.90;;;;;;5059721;28;20491;-82
2022/11/05 07:11:45;;;;;;;0.70;0.70;;;5.20;99.90;;;;;;5064062;28;20070;-81
2022/11/05 07:14:10;;;;;;;0.70;0.70;;;5.60;99.90;;;;;;5063887;28;20073;-80
2022/11/05 07:16:36;;;;;;;0.70;0.70;;;5.20;99.90;;;;;;5097879;28;20043;-81
2022/11/05 07:19:02;;;;;;;0.70;0.70;;;5.10;99.90;;;;;;5080501;28;20039;-80
2022/11/05 07:21:28;;;;;;;0.75;0.75;;;5.10;99.90;;;;;;5079997;28;20032;-81
2022/11/05 07:23:53;;;;;;;;;;;5.10;99.90;;;;;;5082760;28;20373;-81
2022/11/05 07:26:19;;;;;;;0.60;0.60;;;5.10;99.90;;;;;;5112532;27;19969;-80
2022/11/05 07:28:45;;;;;;;0.70;0.70;;;5.10;99.90;;;;;;5077909;28;20105;-81
2022/11/05 07:31:10;;;;;;;1.17;1.17;;;5.20;99.90;;;;;;5068044;28;20492;-81
2022/11/05 07:33:36;;;;;;;0.60;0.60;;;5.20;99.90;;;;;;5078875;28;20084;-79
2022/11/05 07:36:02;;;;;;;0.60;0.60;;;5.20;99.90;;;;;;5081034;28;20480;-80
2022/11/05 07:38:27;;;;;;;0.65;0.65;;;5.30;99.90;;;;;;5091626;28;20469;-80
2022/11/05 07:40:53;;;;;;;0.50;0.50;;;5.30;99.90;;;;;;5076061;28;20047;-79
2022/11/05 07:43:19;;;;;;;0.60;0.60;;;5.50;99.90;;;;;;5060929;28;20043;-79
2022/11/05 07:45:46;;;;;;;0.55;0.55;;;5.50;99.90;;;;;;5081115;28;20051;-80
2022/11/05 07:48:12;;;;;;;0.60;0.60;;;5.70;99.90;;;;;;5094204;28;20047;-79
2022/11/05 07:50:37;;;;;;;0.60;0.60;;;5.70;99.90;;;;;;5077609;28;20040;-80
2022/11/05 07:53:05;;;;;;;0.50;0.50;;;5.70;99.90;;;;;;5096907;28;21060;-81
2022/11/05 07:55:32;;;;;;;0.60;0.60;;;5.80;99.90;;;;;;5063789;28;20553;-79
2022/11/05 07:57:57;;;;;;;0.73;0.73;;;5.90;99.90;;;;;;5077369;28;20032;-79
2022/11/05 08:00:25;;;;;;;0.90;0.90;;;5.90;99.90;;;;;;5074859;28;20100;-80
2022/11/05 08:03:06;;;;;;;0.60;0.60;;;5.90;99.90;;;;;;5078670;28;20049;-80
2022/11/05 08:05:35;;;;;;;1.83;1.73;;;6.00;99.90;;;;;;5073870;28;20444;-79
2022/11/05 08:08:01;;;;;;;0.73;0.73;;;6.00;99.90;;;;;;5075016;28;20044;-80
2022/11/05 08:10:27;;;;;;;;;;;6.10;99.90;;;;;;5065140;28;20109;-78
2022/11/05 08:12:54;;;;;;;0.55;0.55;;;6.20;99.90;;;;;;5106826;27;19916;-79
2022/11/05 08:15:19;;;;;;;0.50;0.50;;;6.20;99.90;;;;;;5075193;28;20477;-79
2022/11/05 08:17:45;;;;;;;0.65;0.65;;;6.20;99.90;;;;;;5057548;28;20051;-78
2022/11/05 08:20:12;;;;;;;0.65;0.65;;;6.20;99.90;;;;;;5075857;28;20052;-80
2022/11/05 08:22:44;;;;;;;0.68;0.68;;;6.30;99.90;;;;;;5078497;28;20048;-79
2022/11/05 08:25:11;;;;;;;0.50;0.50;;;6.40;99.90;;;;;;5054439;28;20040;-79
2022/11/05 08:27:37;;;;;;;0.70;0.70;;;6.50;99.90;;;;;;5057731;28;20130;-80
2022/11/05 08:30:07;;;;;;;0.40;0.40;;;6.60;99.90;;;;;;5047276;28;20119;-79
2022/11/05 08:32:33;;;;;;;0.68;0.68;;;6.70;99.90;;;;;;5076301;28;20044;-80
2022/11/05 08:34:59;;;;;;;;;;;6.80;99.90;;;;;;5067795;28;20036;-80
2022/11/05 08:37:25;;;;;;;0.60;0.60;;;6.90;99.90;;;;;;5076276;28;19924;-79
2022/11/05 08:39:50;;;;;;;0.50;0.50;;;7.00;99.90;;;;;;5077416;28;20054;-78
2022/11/05 08:42:16;;;;;;;1.02;0.90;;;7.20;99.90;;;;;;5031373;28;20465;-80
2022/11/05 08:44:42;;;;;;;1.80;1.40;;;7.40;99.90;;;;;;5076152;28;20047;-79
2022/11/05 08:47:07;;;;;;;1.98;1.88;;;7.60;99.90;;;;;;5061781;28;20044;-79
2022/11/05 08:49:33;;;;;;;0.50;0.50;;;7.80;99.90;;;;;;5079439;28;20119;-79
2022/11/05 08:51:58;;;;;;;0.50;0.50;;;8.00;99.90;;;;;;5049796;28;20494;-79
2022/11/05 08:54:24;;;;;;;0.60;0.60;;;8.10;99.90;;;;;;5031513;28;20193;-80
2022/11/05 08:56:50;;;;;;;0.60;0.60;;;8.20;99.90;;;;;;5057891;28;20040;-79
2022/11/05 08:59:16;;;;;;;0.57;0.57;;;8.30;99.90;;;;;;5067374;28;20097;-79
2022/11/05 09:01:41;;;;;;;0.90;0.90;;;8.40;99.90;;;;;;5070838;28;20133;-78
2022/11/05 09:04:07;;;;;;;0.50;0.50;;;8.50;99.90;;;;;;5072999;28;20094;-77
2022/11/05 09:06:33;;;;;;;0.68;0.68;;;8.50;99.90;;;;;;5040554;28;20051;-78
2022/11/05 09:08:58;;;;;;;1.20;1.20;;;8.60;99.90;;;;;;5067456;28;20095;-78
2022/11/05 09:11:24;;;;;;;1.88;1.75;;;8.80;99.90;;;;;;5046421;28;20040;-78
2022/11/05 09:13:50;;;;;;;0.40;0.40;;;8.90;99.90;;;;;;5050457;28;20044;-78
2022/11/05 09:16:22;;;;;;;0.40;0.40;;;9.10;99.90;;;;;;5051970;28;20603;-78
2022/11/05 09:18:49;;;;;;;0.75;0.75;;;9.30;99.90;;;;;;5063047;28;20123;-78
2022/11/05 09:21:16;;;;;;;0.80;0.80;;;9.40;99.90;;;;;;5061350;28;20048;-80
2022/11/05 09:23:42;;;;;;;0.57;0.57;;;9.60;99.90;;;;;;5037402;28;20261;-79
2022/11/05 09:26:09;;;;;;;0.40;0.40;;;9.70;99.90;;;;;;5065057;28;20055;-78
2022/11/05 09:28:35;;;;;;;0.40;0.40;;;9.70;99.90;;;;;;5060636;28;20729;-81
2022/11/05 09:31:08;;;;;;;0.50;0.50;;;9.70;99.90;;;;;;5064757;28;20039;-79
2022/11/05 09:33:36;;;;;;;0.60;0.60;;;9.70;99.90;;;;;;5051145;28;20130;-78
2022/11/05 09:36:02;;;;;;;0.70;0.70;;;9.80;99.90;;;;;;5081770;28;20049;-79
2022/11/05 09:38:29;;;;;;;0.25;0.25;;;9.90;99.90;;;;;;5081803;28;20044;-77
2022/11/05 09:41:27;;;;;;;0.50;0.50;;;10.00;99.90;;;;;;5068944;28;20068;-80
2022/11/05 09:44:15;;;;;;;0.80;0.80;;;10.00;99.90;;;;;;5049358;28;20135;-78
2022/11/05 09:46:52;;;;;;;1.23;1.17;;;10.00;99.90;;;;;;5071608;28;20052;-78
2022/11/05 09:49:27;;;;;;;0.60;0.60;;;10.00;99.90;;;;;;5068959;28;20051;-80
2022/11/05 09:51:56;;;;;;;0.57;0.57;;;9.90;99.90;;;;;;5067952;28;20051;-80
2022/11/05 09:54:25;;;;;;;0.50;0.50;;;9.90;99.90;;;;;;5073038;28;20087;-80
2022/11/05 09:56:52;;;;;;;0.30;0.30;;;9.90;99.90;;;;;;5078380;28;20584;-79
2022/11/05 09:59:23;;;;;;;0.70;0.70;;;9.90;99.90;;;;;;5071619;28;20083;-81
2022/11/05 10:01:52;;;;;;;0.40;0.40;;;9.90;99.90;;;;;;5095815;28;20127;-79
2022/11/05 10:04:22;;;;;;;0.43;0.43;;;9.80;99.90;;;;;;5080121;28;20047;-78
2022/11/05 10:06:54;;;;;;;0.70;0.70;;;9.80;99.90;;;;;;5076448;28;20090;-78
2022/11/05 10:09:30;;;;;;;0.40;0.40;;;9.80;99.90;;;;;;5077909;28;20393;-79
2022/11/05 10:12:03;;;;;;;0.60;0.60;;;9.80;99.90;;;;;;5108914;27;20096;-79
2022/11/05 10:14:39;;;;;;;0.75;0.75;;;9.70;99.90;;;;;;5093160;28;20043;-79
2022/11/05 10:17:11;;;;;;;0.40;0.40;;;9.70;99.90;;;;;;5095991;28;20405;-78
2022/11/05 10:20:09;;;;;;;0.40;0.40;;;9.60;99.90;;;;;;5079019;28;20039;-78
2022/11/05 10:22:35;;;;;;;0.50;0.50;;;9.70;99.90;;;;;;5062996;28;20051;-78
2022/11/05 10:25:11;;;;;;;0.40;0.40;;;9.90;99.90;;;;;;5060422;28;20326;-79
2022/11/05 10:27:37;;;;;;;0.47;0.47;;;10.00;99.90;;;;;;5078668;28;20397;-80
2022/11/05 10:30:03;;;;;;;0.52;0.52;;;10.20;99.90;;;;;;5076263;28;20039;-79
2022/11/05 10:32:40;;;;;;;0.60;0.60;;;10.40;99.90;;;;;;5086734;28;20036;-79
2022/11/05 10:35:13;;;;;;;0.50;0.50;;;10.50;99.90;;;;;;5076322;28;20556;-80
2022/11/05 10:37:40;;;;;;;2.95;0.82;;;10.60;99.90;;;;;;5075043;28;20039;-79
2022/11/05 10:40:37;;;;;;;0.43;0.43;;;10.60;99.90;;;;;;5074983;28;20062;-79
2022/11/05 10:43:14;;;;;;;0.45;0.45;;;10.70;99.90;;;;;;5069614;28;20068;-78
2022/11/05 10:45:54;;;;;;;0.43;0.43;;;10.80;99.90;;;;;;5084171;28;20054;-79
2022/11/05 10:48:59;;;;;;;0.38;0.38;;;10.90;99.90;;;;;;5064661;27;20435;-80
2022/11/05 10:51:26;;;;;;;0.40;0.40;;;11.00;99.90;;;;;;5079153;28;20044;-80
2022/11/05 10:53:59;;;;;;;0.50;0.50;;;11.20;99.90;;;;;;5098569;28;20047;-80
2022/11/05 10:56:34;;;;;;;0.40;0.40;;;11.20;99.90;;;;;;5075805;28;20040;-80
2022/11/05 10:59:01;;;;;;;2.05;0.73;;;11.30;99.90;;;;;;5076605;28;20044;-79
2022/11/05 11:01:29;;;;;;;0.45;0.45;;;11.30;99.90;;;;;;5079389;28;20104;-79
2022/11/05 11:04:14;;;;;;;0.40;0.40;;;11.30;99.90;;;;;;5086728;28;20036;-79
2022/11/05 11:06:48;;;;;;;0.40;0.40;;;11.40;99.90;;;;;;5063523;28;20048;-80
2022/11/05 11:09:30;;;;;;;0.30;0.30;;;11.40;99.90;;;;;;5061256;28;20045;-78
2022/11/05 11:12:04;;;;;;;0.43;0.43;;;11.40;99.90;;;;;;5060043;28;20082;-78
2022/11/05 11:14:31;;;;;;;0.40;0.40;;;11.50;99.90;;;;;;5059405;28;20052;-77
2022/11/05 11:17:16;;;;;;;0.50;0.50;;;11.50;99.90;;;;;;5046398;28;20040;-77
2022/11/05 11:19:43;;;;;;;0.40;0.40;;;11.60;99.90;;;;;;5063042;28;20051;-79
2022/11/05 11:22:15;;;;;;;0.90;0.50;;;11.60;99.90;;;;;;5061977;28;20040;-79
2022/11/05 11:24:44;;;;;;;0.73;0.50;;;11.60;99.90;;;;;;5057179;28;20048;-78
2022/11/05 11:27:14;;;;;;;0.30;0.30;;;11.60;99.90;;;;;;5062913;28;20043;-78
2022/11/05 11:29:43;;;;;;;0.40;0.40;;;11.70;99.90;;;;;;5057760;28;20044;-78
2022/11/05 11:32:14;;;;;;;0.55;0.52;;;11.70;99.90;;;;;;5070250;28;20044;-78
2022/11/05 11:34:42;;;;;;;0.40;0.40;;;11.90;99.90;;;;;;5054820;28;20104;-79
2022/11/05 11:37:17;;;;;;;0.32;0.32;;;12.00;99.90;;;;;;5072902;28;20083;-78
2022/11/05 11:39:50;;;;;;;0.28;0.28;;;12.10;99.90;;;;;;5079391;28;20075;-79
2022/11/05 11:42:26;;;;;;;0.40;0.40;;;12.20;99.90;;;;;;5078223;28;20177;-78
2022/11/05 11:44:52;;;;;;;0.85;0.85;;;12.20;99.90;;;;;;5073361;28;20047;-79
2022/11/05 11:47:19;;;;;;;;;;;12.20;99.90;;;;;;5042352;28;21768;-77
2022/11/05 11:49:57;;;;;;;0.30;0.30;;;12.30;99.90;;;;;;5070669;28;19920;-77
2022/11/05 11:52:30;;;;;;;0.30;0.30;;;12.40;99.90;;;;;;5066315;28;20126;-79
2022/11/05 11:55:11;;;;;;;0.55;0.55;;;12.50;99.90;;;;;;5051189;28;20182;-78
2022/11/05 11:57:53;;;;;;;0.73;0.73;;;12.50;99.90;;;;;;5069373;28;20124;-78
2022/11/05 12:00:22;;;;;;;4.20;0.98;;;12.50;99.90;;;;;;5068959;28;20481;-77
2022/11/05 12:03:03;;;;;;;0.40;0.40;;;12.30;99.90;;;;;;5111833;27;20105;-78
2022/11/05 12:05:35;;;;;;;0.40;0.40;;;12.10;99.90;;;;;;5070425;28;20058;-79
2022/11/05 12:08:21;;;;;;;0.40;0.40;;;12.00;99.90;;;;;;5078644;28;20496;-78
2022/11/05 12:10:52;;;;;;;0.35;0.35;;;12.00;99.90;;;;;;5081254;28;20047;-77
2022/11/05 12:13:19;;;;;;;0.30;0.30;;;11.90;99.90;;;;;;5109421;27;20174;-78
2022/11/05 12:15:58;;;;;;;0.60;0.60;;;11.80;99.90;;;;;;5058415;28;20043;-79
2022/11/05 12:19:04;;;;;;;0.30;0.30;;;11.70;99.90;;;;;;5074179;28;20058;-79
2022/11/05 12:22:08;;;;;;;0.40;0.40;;;11.70;99.90;;;;;;5068691;28;20040;-78
2022/11/05 12:25:12;;;;;;;0.30;0.30;;;11.70;99.90;;;;;;5051303;28;20031;-78
2022/11/05 12:28:02;;;;;;;0.40;0.40;;;11.70;99.90;;;;;;5061178;28;20096;-77
2022/11/05 12:30:47;;;;;;;0.40;0.40;;;11.70;99.90;;;;;;5073752;28;20039;-79
2022/11/05 12:33:25;;;;;;;0.38;0.38;;;11.70;99.90;;;;;;5093478;28;20126;-78
2022/11/05 12:36:10;;;;;;;0.40;0.40;;;11.70;99.90;;;;;;5092496;28;20127;-78
2022/11/05 12:38:53;;;;;;;0.30;0.30;;;11.60;99.90;;;;;;5091498;28;20115;-78
2022/11/05 12:41:29;;;;;;;0.40;0.40;;;11.60;99.90;;;;;;5079681;28;20035;-76
2022/11/05 12:44:24;;;;;;;0.38;0.38;;;11.60;99.90;;;;;;5058395;28;20032;-80
2022/11/05 12:46:49;;;;;;;0.40;0.40;;;11.50;99.90;;;;;;4990171;28;20088;-78
2022/11/05 12:49:41;;;;;;;0.40;0.40;;;11.50;99.90;;;;;;5063242;28;20048;-78
2022/11/05 12:52:29;;;;;;;0.40;0.40;;;11.40;99.90;;;;;;5039773;28;20044;-79
2022/11/05 12:55:18;;;;;;;0.30;0.30;;;11.40;99.90;;;;;;5076821;28;20075;-78
2022/11/05 12:57:47;;;;;;;0.40;0.40;;;11.30;99.90;;;;;;5072856;28;20040;-77
2022/11/05 13:00:24;;;;;;;0.47;0.47;;;11.20;99.90;;;;;;5072341;28;20148;-77
2022/11/05 13:03:04;;;;;;;0.40;0.40;;;11.20;99.90;;;;;;5073215;28;20475;-78
2022/11/05 13:05:46;;;;;;;0.40;0.40;;;11.20;99.90;;;;;;5070751;28;20059;-78
2022/11/05 13:08:25;;;;;;;0.40;0.40;;;11.10;99.90;;;;;;5056196;28;20131;-79
2022/11/05 13:11:02;;;;;;;4.22;2.80;;;11.10;99.90;;;;;;5059033;28;20077;-79
2022/11/05 13:13:51;;;;;;;0.40;0.40;;;10.90;99.90;;;;;;5075398;28;20123;-80
2022/11/05 13:17:04;;;;;;;0.45;0.45;;;10.70;99.90;;;;;;5109224;27;20051;-80
2022/11/05 13:19:40;;;;;;;0.50;0.50;;;10.40;99.90;;;;;;5053320;28;20055;-80
2022/11/05 13:22:11;;;;;;;0.40;0.40;;;9.30;99.90;;;;;;5049029;28;20114;-79
2022/11/05 13:24:46;;;;;;;0.40;0.40;;;10.10;99.90;;;;;;5055477;28;20071;-79
2022/11/05 13:27:52;;;;;;;0.45;0.45;;;10.00;99.90;;;;;;5074495;28;20528;-80
2022/11/05 13:30:29;;;;;;;0.98;0.50;;;10.00;99.90;;;;;;5058820;28;20512;-80
2022/11/05 13:33:04;;;;;;;0.47;0.47;;;10.00;99.90;;;;;;5106760;27;20054;-80
2022/11/05 13:35:46;;;;;;;0.75;0.75;;;10.00;99.90;;;;;;5076740;28;20085;-79
2022/11/05 13:41:28;;;;;;;0.50;0.50;;;10.10;99.90;;;;;;5043505;28;20048;-80
2022/11/05 13:44:10;;;;;;;0.40;0.40;;;10.20;99.90;;;;;;5074649;28;20040;-78
2022/11/05 13:47:02;;;;;;;0.50;0.50;;;10.30;99.90;;;;;;5076542;28;20184;-80
2022/11/05 13:50:10;;;;;;;0.47;0.47;;;10.30;99.90;;;;;;5109027;27;20055;-80
2022/11/05 13:52:44;;;;;;;;;;;10.40;99.90;;;;;;5077729;28;20047;-77
2022/11/05 13:55:51;;;;;;;0.50;0.50;;;10.40;99.90;;;;;;5059414;27;19920;-81
2022/11/05 13:58:30;;;;;;;0.37;0.37;;;10.40;99.90;;;;;;5096561;27;20400;-79
2022/11/05 14:01:30;;;;;;;0.60;0.60;;;10.40;99.90;;;;;;5094889;28;20096;-80
2022/11/05 14:03:56;;;;;;;0.63;0.50;;;10.30;99.90;;;;;;5075129;28;20050;-79
2022/11/05 14:06:35;;;;;;;0.68;0.68;;;10.30;99.90;;;;;;5080630;28;20044;-80
2022/11/05 14:09:07;;;;;;;0.30;0.30;;;10.30;99.90;;;;;;5085396;28;20048;-80